Time;durP1;ratioP1;P1;durP2;ratioP2;P2;SDS_P1;SDS_P2;PMS_P1;PMS_P2;Temp;Humidity;BMP_temperature;BMP_pressure;BME280_temperature;BME280_humidity;BME280_pressure;Samples;Min_cycle;Max_cycle;Signal;HPM_P1;HPM_P2
2022/03/24 00:01:51;;;;;;;54.58;31.67;;;6.10;99.90;;;;;;5050619;28;20055;-86
2022/03/24 00:04:17;;;;;;;53.67;33.10;;;6.10;99.90;;;;;;5031998;28;20056;-85
2022/03/24 00:06:43;;;;;;;54.45;31.88;;;6.10;99.90;;;;;;5050234;28;20499;-86
2022/03/24 00:09:08;;;;;;;54.53;32.35;;;7.50;99.90;;;;;;5032705;28;20044;-86
2022/03/24 00:11:34;;;;;;;54.45;32.55;;;6.00;99.90;;;;;;5049510;28;20125;-85
2022/03/24 00:14:00;;;;;;;49.15;31.52;;;6.00;99.90;;;;;;5049409;28;20044;-87
2022/03/24 00:16:26;;;;;;;64.32;32.97;;;6.00;99.90;;;;;;5064556;28;20064;-87
2022/03/24 00:18:52;;;;;;;47.75;29.63;;;5.90;99.90;;;;;;5049996;28;20133;-87
2022/03/24 00:21:18;;;;;;;51.45;29.80;;;5.90;99.90;;;;;;5047711;28;20480;-87
2022/03/24 00:23:44;;;;;;;47.28;28.83;;;5.90;99.90;;;;;;5066575;28;20051;-87
2022/03/24 00:26:10;;;;;;;46.50;28.45;;;5.90;99.90;;;;;;5048287;28;20451;-87
2022/03/24 00:28:35;;;;;;;47.85;29.42;;;5.80;99.90;;;;;;5049452;28;20059;-86
2022/03/24 00:31:02;;;;;;;45.42;28.83;;;5.80;99.90;;;;;;5065227;28;20496;-87
2022/03/24 00:33:28;;;;;;;45.05;27.38;;;6.80;99.90;;;;;;5048356;28;20251;-87
2022/03/24 00:35:56;;;;;;;47.13;28.50;;;6.50;99.90;;;;;;5049392;28;20048;-87
2022/03/24 00:38:22;;;;;;;49.30;29.70;;;6.80;99.90;;;;;;5047913;28;20125;-87
2022/03/24 00:40:48;;;;;;;48.95;29.20;;;5.70;99.90;;;;;;5049440;28;20503;-86
2022/03/24 00:43:14;;;;;;;48.85;28.95;;;5.60;99.90;;;;;;5047853;28;20052;-87
2022/03/24 00:45:40;;;;;;;42.95;25.77;;;5.70;99.90;;;;;;5032413;28;20044;-87
2022/03/24 00:48:07;;;;;;;48.42;30.00;;;5.70;99.90;;;;;;5052219;28;20051;-87
2022/03/24 00:50:34;;;;;;;45.13;27.98;;;6.80;99.90;;;;;;5053139;28;20048;-87
2022/03/24 00:53:01;;;;;;;52.65;30.77;;;5.60;99.90;;;;;;5049134;28;20047;-87
2022/03/24 00:55:26;;;;;;;53.97;31.75;;;6.80;99.90;;;;;;5031161;28;20594;-87
2022/03/24 00:57:53;;;;;;;54.47;30.33;;;5.60;99.90;;;;;;5049274;28;20131;-87
2022/03/24 01:00:21;;;;;;;51.30;30.00;;;5.60;99.90;;;;;;5064778;28;20037;-87
2022/03/24 01:02:49;;;;;;;54.72;30.65;;;6.40;99.90;;;;;;5032310;28;20044;-86
2022/03/24 01:05:16;;;;;;;54.80;30.75;;;6.90;99.90;;;;;;5065639;28;20135;-86
2022/03/24 01:07:42;;;;;;;55.53;32.05;;;5.50;99.90;;;;;;5080957;28;20123;-87
2022/03/24 01:10:11;;;;;;;51.58;30.05;;;6.90;99.90;;;;;;5074014;28;20278;-86
2022/03/24 01:12:39;;;;;;;54.30;31.42;;;5.40;99.90;;;;;;5084077;28;20062;-86
2022/03/24 01:15:10;;;;;;;54.28;31.27;;;6.40;99.90;;;;;;5049723;28;20053;-86
2022/03/24 01:17:36;;;;;;;49.75;30.75;;;5.40;99.90;;;;;;5064356;28;20074;-86
2022/03/24 01:20:05;;;;;;;62.97;32.03;;;6.30;99.90;;;;;;5014951;28;20045;-86
2022/03/24 01:22:31;;;;;;;52.22;31.48;;;5.40;99.90;;;;;;5065543;28;20399;-86
2022/03/24 01:24:58;;;;;;;51.63;32.10;;;6.70;99.90;;;;;;5030815;28;20373;-86
2022/03/24 01:27:26;;;;;;;51.00;31.17;;;5.30;99.90;;;;;;5065349;28;20182;-86
2022/03/24 01:29:56;;;;;;;58.17;32.83;;;5.30;99.90;;;;;;5030129;28;20106;-85
2022/03/24 01:32:23;;;;;;;55.03;32.78;;;6.80;99.90;;;;;;5048233;28;20085;-86
2022/03/24 01:34:50;;;;;;;58.42;33.42;;;6.60;99.90;;;;;;5047385;28;20032;-86
2022/03/24 01:37:16;;;;;;;56.00;31.55;;;6.20;99.90;;;;;;5031702;28;20400;-86
2022/03/24 01:39:42;;;;;;;52.55;28.63;;;6.40;99.90;;;;;;5048337;28;20052;-86
2022/03/24 01:42:08;;;;;;;48.70;29.67;;;6.40;99.90;;;;;;5063754;28;20510;-86
2022/03/24 01:44:34;;;;;;;54.72;31.17;;;5.10;99.90;;;;;;5032371;28;20114;-86
2022/03/24 01:47:08;;;;;;;54.75;31.58;;;5.00;99.90;;;;;;5013469;28;20487;-86
2022/03/24 01:49:39;;;;;;;46.88;29.38;;;5.00;99.90;;;;;;5048242;28;20057;-87
2022/03/24 01:52:10;;;;;;;53.97;31.13;;;6.50;99.90;;;;;;5047937;28;20102;-87
2022/03/24 01:54:39;;;;;;;54.08;30.58;;;4.90;99.90;;;;;;5063977;28;20136;-87
2022/03/24 01:57:07;;;;;;;57.42;32.83;;;6.50;99.90;;;;;;5048317;28;20037;-87
2022/03/24 01:59:37;;;;;;;59.08;33.70;;;6.20;99.90;;;;;;5046347;28;20040;-87
2022/03/24 02:02:04;;;;;;;51.90;31.27;;;6.30;99.90;;;;;;5048538;28;20490;-86
2022/03/24 02:04:35;;;;;;;52.58;29.38;;;4.90;99.90;;;;;;5047174;28;20032;-86
2022/03/24 02:07:01;;;;;;;55.70;31.40;;;4.90;99.90;;;;;;5031943;28;20052;-86
2022/03/24 02:09:27;;;;;;;54.97;31.67;;;4.90;99.90;;;;;;5031041;28;20065;-86
2022/03/24 02:11:54;;;;;;;51.55;30.92;;;4.90;99.90;;;;;;5013736;28;20088;-86
2022/03/24 02:14:19;;;;;;;55.05;30.17;;;6.40;99.90;;;;;;5031357;28;20526;-85
2022/03/24 02:16:48;;;;;;;56.40;32.17;;;4.90;99.90;;;;;;5046289;28;20080;-86
2022/03/24 02:19:21;;;;;;;54.83;30.88;;;4.90;99.90;;;;;;5048282;28;20489;-86
2022/03/24 02:21:48;;;;;;;54.63;29.77;;;4.80;99.90;;;;;;5046403;28;20103;-85
2022/03/24 02:24:15;;;;;;;48.67;29.65;;;6.20;99.90;;;;;;5031047;28;20054;-86
2022/03/24 02:26:44;;;;;;;50.60;29.13;;;4.80;99.90;;;;;;5031640;28;20083;-86
2022/03/24 02:29:15;;;;;;;48.80;28.25;;;4.70;99.90;;;;;;5063851;28;20044;-87
2022/03/24 02:31:43;;;;;;;45.92;28.02;;;6.20;99.90;;;;;;5065836;28;20044;-86
2022/03/24 02:36:58;;;;;;;55.28;29.25;;;4.60;99.90;;;;;;5067180;28;20180;-87
2022/03/24 02:39:24;;;;;;;49.95;29.52;;;5.10;99.90;;;;;;5058460;28;20047;-86
2022/03/24 02:41:53;;;;;;;59.53;30.60;;;5.10;99.90;;;;;;5089232;28;20028;-86
2022/03/24 02:44:22;;;;;;;53.13;32.10;;;4.60;99.90;;;;;;5074263;28;20058;-86
2022/03/24 02:46:49;;;;;;;49.80;29.35;;;4.50;99.90;;;;;;5073140;28;20033;-87
2022/03/24 02:49:25;;;;;;;;;;;4.40;99.90;;;;;;5057936;28;20059;-85
2022/03/24 02:51:58;;;;;;;54.65;30.83;;;4.50;99.90;;;;;;5050686;28;19921;-86
2022/03/24 02:54:24;;;;;;;63.58;33.60;;;4.50;99.90;;;;;;5050600;28;20048;-87
2022/03/24 02:56:49;;;;;;;52.97;30.17;;;5.80;99.90;;;;;;5050939;28;20078;-86
2022/03/24 02:59:16;;;;;;;62.67;33.45;;;4.50;99.90;;;;;;5016786;28;20132;-87
2022/03/24 03:02:07;;;;;;;58.28;32.33;;;4.50;99.90;;;;;;5035443;28;20549;-87
2022/03/24 03:04:37;;;;;;;57.17;32.83;;;4.50;99.90;;;;;;5050028;28;20032;-87
2022/03/24 03:07:04;;;;;;;59.80;33.38;;;5.30;99.90;;;;;;5066741;28;20044;-87
2022/03/24 03:09:31;;;;;;;66.30;35.53;;;4.40;99.90;;;;;;5067758;28;20483;-87
2022/03/24 03:11:58;;;;;;;57.17;30.52;;;5.80;99.90;;;;;;5050575;28;20036;-87
2022/03/24 03:14:25;;;;;;;65.60;34.08;;;4.20;99.90;;;;;;5070659;28;20052;-86
2022/03/24 03:16:51;;;;;;;58.40;33.38;;;5.80;99.90;;;;;;5054419;28;20122;-87
2022/03/24 03:19:19;;;;;;;56.42;30.50;;;5.80;99.90;;;;;;5053575;28;20076;-87
2022/03/24 03:21:47;;;;;;;59.05;34.20;;;4.30;99.90;;;;;;5050006;28;20041;-87
2022/03/24 03:24:13;;;;;;;60.90;34.55;;;4.30;99.90;;;;;;5050479;28;20064;-86
2022/03/24 03:26:39;;;;;;;64.82;33.17;;;4.20;99.90;;;;;;5066986;28;20408;-86
2022/03/24 03:29:06;;;;;;;57.00;30.90;;;4.20;99.90;;;;;;5049335;28;20044;-85
2022/03/24 03:31:34;;;;;;;55.38;32.05;;;5.40;99.90;;;;;;5050742;28;20520;-87
2022/03/24 03:34:00;;;;;;;64.38;31.67;;;4.20;99.90;;;;;;5050424;28;20051;-87
2022/03/24 03:36:26;;;;;;;58.42;32.60;;;4.20;99.90;;;;;;5051026;28;20049;-87
2022/03/24 03:38:52;;;;;;;53.55;30.83;;;5.20;99.90;;;;;;5016284;28;20405;-86
2022/03/24 03:41:22;;;;;;;53.92;30.33;;;5.20;99.90;;;;;;5032873;28;20109;-86
2022/03/24 03:43:48;;;;;;;57.22;33.65;;;5.50;99.90;;;;;;5034455;28;20052;-86
2022/03/24 03:46:13;;;;;;;56.05;32.22;;;4.10;99.90;;;;;;5048733;28;20057;-86
2022/03/24 03:48:40;;;;;;;56.33;30.83;;;4.00;99.90;;;;;;5067238;28;20576;-86
2022/03/24 03:51:07;;;;;;;57.10;31.52;;;4.00;99.90;;;;;;5047382;28;20051;-86
2022/03/24 03:53:35;;;;;;;65.95;36.30;;;5.10;99.90;;;;;;5049831;28;20051;-85
2022/03/24 03:56:01;;;;;;;58.13;32.10;;;5.40;99.90;;;;;;5065452;28;20084;-86
2022/03/24 03:58:27;;;;;;;69.28;38.42;;;4.00;99.90;;;;;;5032575;28;20044;-86
2022/03/24 04:00:53;;;;;;;64.63;35.08;;;3.90;99.90;;;;;;5049743;28;20529;-86
2022/03/24 04:03:20;;;;;;;65.55;34.42;;;5.10;99.90;;;;;;5048439;28;20044;-86
2022/03/24 04:05:46;;;;;;;64.88;35.28;;;5.30;99.90;;;;;;5049533;28;20131;-86
2022/03/24 04:08:13;;;;;;;81.32;36.42;;;4.70;99.90;;;;;;5065529;28;20229;-85
2022/03/24 04:10:39;;;;;;;67.80;35.80;;;3.90;99.90;;;;;;5033500;28;20129;-86
2022/03/24 04:13:07;;;;;;;63.42;35.65;;;5.20;99.90;;;;;;5049691;28;20036;-86
2022/03/24 04:15:34;;;;;;;64.70;34.63;;;3.50;99.90;;;;;;5060954;28;20100;-87
2022/03/24 04:18:01;;;;;;;63.53;35.10;;;3.80;99.90;;;;;;5087670;28;20048;-86
2022/03/24 04:20:27;;;;;;;63.13;34.00;;;3.80;99.90;;;;;;5088823;28;20025;-86
2022/03/24 04:22:58;;;;;;;75.80;38.05;;;3.80;99.90;;;;;;5050625;28;20392;-87
2022/03/24 04:25:24;;;;;;;66.55;36.80;;;5.20;99.90;;;;;;5048859;28;20049;-86
2022/03/24 04:27:50;;;;;;;68.63;33.90;;;3.80;99.90;;;;;;5050545;28;20090;-86
2022/03/24 04:30:21;;;;;;;73.28;36.65;;;4.30;99.90;;;;;;5031523;28;20098;-85
2022/03/24 04:32:48;;;;;;;70.50;38.08;;;3.90;99.90;;;;;;5048690;28;20049;-87
2022/03/24 04:35:15;;;;;;;64.43;33.45;;;3.90;99.90;;;;;;5032961;28;20079;-86
2022/03/24 04:37:42;;;;;;;62.55;35.97;;;3.90;99.90;;;;;;5047803;28;20084;-87
2022/03/24 04:40:10;;;;;;;60.65;33.58;;;3.90;99.90;;;;;;5066604;28;20095;-86
2022/03/24 04:42:36;;;;;;;60.78;32.83;;;3.90;99.90;;;;;;5065414;28;20127;-87
2022/03/24 04:45:02;;;;;;;54.30;31.02;;;3.90;99.90;;;;;;5032623;28;20476;-87
2022/03/24 04:47:28;;;;;;;55.88;30.00;;;3.80;99.90;;;;;;5031483;28;20488;-87
2022/03/24 04:49:54;;;;;;;52.92;31.85;;;5.10;99.90;;;;;;5048248;28;20048;-87
2022/03/24 04:52:20;;;;;;;58.17;31.48;;;3.80;99.90;;;;;;5049420;28;20438;-86
2022/03/24 04:54:46;;;;;;;56.28;31.42;;;3.80;99.90;;;;;;5064528;28;20047;-88
2022/03/24 04:57:12;;;;;;;58.47;32.25;;;3.80;99.90;;;;;;5015897;28;20087;-86
2022/03/24 04:59:38;;;;;;;57.33;31.35;;;3.80;99.90;;;;;;5065113;28;20048;-89
2022/03/24 05:02:04;;;;;;;57.75;32.00;;;3.70;99.90;;;;;;5016874;28;20055;-87
2022/03/24 05:04:30;;;;;;;59.33;31.13;;;3.70;99.90;;;;;;5015475;28;20040;-86
2022/03/24 05:06:56;;;;;;;55.88;33.80;;;3.70;99.90;;;;;;5031463;28;20376;-90
2022/03/24 05:09:22;;;;;;;60.88;33.50;;;3.70;99.90;;;;;;5015795;28;20048;-87
2022/03/24 05:11:47;;;;;;;55.67;30.20;;;5.00;99.90;;;;;;5047663;28;20048;-87
2022/03/24 05:14:13;;;;;;;55.33;32.60;;;3.60;99.90;;;;;;5048492;28;20037;-87
2022/03/24 05:16:39;;;;;;;57.28;31.00;;;4.70;99.90;;;;;;5047209;28;20078;-86
2022/03/24 05:19:05;;;;;;;64.20;34.08;;;3.60;99.90;;;;;;5048418;28;20218;-86
2022/03/24 05:21:33;;;;;;;62.63;33.83;;;3.50;99.90;;;;;;5047339;28;20037;-87
2022/03/24 05:24:00;;;;;;;61.40;31.42;;;3.50;99.90;;;;;;5047668;28;20040;-87
2022/03/24 05:26:26;;;;;;;66.97;35.75;;;3.50;99.90;;;;;;5048268;28;20048;-87
2022/03/24 05:28:53;;;;;;;72.28;38.60;;;3.50;99.90;;;;;;5031037;28;20484;-87
2022/03/24 05:31:20;;;;;;;60.40;34.60;;;3.50;99.90;;;;;;5048394;28;20464;-86
2022/03/24 05:33:47;;;;;;;66.22;35.88;;;4.50;99.90;;;;;;5064381;28;20495;-87
2022/03/24 05:36:13;;;;;;;63.50;34.85;;;4.90;99.90;;;;;;5065644;28;20060;-87
2022/03/24 05:38:39;;;;;;;69.70;37.88;;;4.20;99.90;;;;;;5032429;28;20036;-88
2022/03/24 05:41:05;;;;;;;70.80;37.47;;;3.50;99.90;;;;;;5034834;28;20127;-87
2022/03/24 05:43:32;;;;;;;66.80;35.53;;;3.50;99.90;;;;;;5078026;28;20117;-88
2022/03/24 05:45:57;;;;;;;66.45;36.78;;;5.10;99.90;;;;;;5060811;28;20045;-86
2022/03/24 05:48:24;;;;;;;74.53;37.33;;;4.60;99.90;;;;;;5085043;28;20052;-86
2022/03/24 05:50:49;;;;;;;66.53;35.13;;;4.80;99.90;;;;;;5069285;28;20029;-87
2022/03/24 05:53:16;;;;;;;63.17;36.20;;;3.60;99.90;;;;;;5071470;28;20029;-89
2022/03/24 05:55:42;;;;;;;65.53;34.80;;;4.90;99.90;;;;;;5050573;28;20174;-87
2022/03/24 05:58:08;;;;;;;68.82;38.08;;;4.50;99.90;;;;;;5048467;28;20040;-84
2022/03/24 06:00:40;;;;;;;69.22;35.17;;;3.70;99.90;;;;;;5031695;28;20483;-84
2022/03/24 06:03:07;;;;;;;59.10;34.60;;;3.70;99.90;;;;;;5047185;28;20134;-85
2022/03/24 06:05:33;;;;;;;67.35;37.35;;;3.70;99.90;;;;;;5064839;28;20079;-85
2022/03/24 06:08:03;;;;;;;74.07;38.40;;;3.70;99.90;;;;;;5047318;28;20547;-87
2022/03/24 06:10:31;;;;;;;61.58;33.40;;;3.80;99.90;;;;;;5048174;28;20041;-84
2022/03/24 06:12:58;;;;;;;60.35;33.35;;;5.30;99.90;;;;;;5063994;28;20045;-86
2022/03/24 06:15:24;;;;;;;63.95;34.85;;;3.90;99.90;;;;;;5050295;28;20147;-89
2022/03/24 06:17:49;;;;;;;64.82;35.88;;;3.90;99.90;;;;;;5051416;28;20078;-87
2022/03/24 06:20:16;;;;;;;62.83;34.40;;;4.00;99.90;;;;;;5050445;28;20036;-86
2022/03/24 06:22:53;;;;;;;63.22;35.65;;;4.70;99.90;;;;;;5051800;28;20087;-86
2022/03/24 06:25:20;;;;;;;60.80;33.72;;;5.40;99.90;;;;;;5033492;28;20110;-86
2022/03/24 06:27:52;;;;;;;71.60;36.97;;;4.20;99.90;;;;;;5068381;28;20075;-85
2022/03/24 06:30:19;;;;;;;75.70;39.40;;;4.30;99.90;;;;;;5067732;28;20044;-85
2022/03/24 06:32:46;;;;;;;73.47;38.67;;;4.40;99.90;;;;;;5067597;28;20036;-85
2022/03/24 06:35:13;;;;;;;76.82;41.22;;;5.90;99.90;;;;;;5051110;28;20044;-86
2022/03/24 06:37:42;;;;;;;81.13;43.38;;;4.60;99.90;;;;;;5050306;28;20525;-87
2022/03/24 06:40:10;;;;;;;79.70;43.38;;;4.70;99.90;;;;;;5035661;28;20036;-86
2022/03/24 06:42:36;;;;;;;78.43;42.85;;;4.80;99.90;;;;;;5067163;28;20442;-86
2022/03/24 06:45:04;;;;;;;87.95;45.53;;;6.00;99.90;;;;;;5069155;28;20040;-87
2022/03/24 06:47:30;;;;;;;88.10;46.22;;;5.80;99.90;;;;;;5050229;28;20051;-88
2022/03/24 06:49:56;;;;;;;80.93;45.63;;;5.20;99.90;;;;;;5034161;28;20041;-85
2022/03/24 06:52:21;;;;;;;90.75;46.78;;;5.30;99.90;;;;;;5034679;28;20511;-86
2022/03/24 06:54:47;;;;;;;91.72;48.50;;;6.70;99.90;;;;;;5050527;28;20066;-88
2022/03/24 06:57:14;;;;;;;81.90;48.35;;;5.50;99.90;;;;;;5069308;28;20032;-87
2022/03/24 06:59:43;;;;;;;84.45;45.05;;;5.60;99.90;;;;;;5033601;28;20139;-86
2022/03/24 07:02:09;;;;;;;85.65;46.35;;;5.80;99.90;;;;;;5034695;28;20044;-85
2022/03/24 07:04:36;;;;;;;79.47;46.90;;;7.00;99.90;;;;;;5050458;28;20408;-87
2022/03/24 07:07:03;;;;;;;89.85;47.40;;;7.10;99.90;;;;;;5050287;28;20143;-86
2022/03/24 07:09:29;;;;;;;82.78;48.10;;;6.30;99.90;;;;;;5034527;28;20036;-86
2022/03/24 07:11:55;;;;;;;79.25;44.80;;;6.30;99.90;;;;;;5051067;28;20054;-87
2022/03/24 07:14:22;;;;;;;76.20;43.15;;;6.60;99.90;;;;;;5055005;28;20049;-87
2022/03/24 07:16:48;;;;;;;71.53;42.08;;;7.50;99.90;;;;;;5051120;28;20059;-86
2022/03/24 07:19:14;;;;;;;67.63;42.92;;;6.80;99.90;;;;;;5089522;28;20029;-86
2022/03/24 07:21:40;;;;;;;80.88;43.55;;;7.00;99.90;;;;;;5074706;28;20100;-86
2022/03/24 07:24:06;;;;;;;74.43;43.08;;;7.30;99.90;;;;;;5046766;28;20047;-86
2022/03/24 07:26:32;;;;;;;75.85;43.28;;;8.40;99.90;;;;;;5050934;28;20450;-86
2022/03/24 07:28:58;;;;;;;75.47;41.22;;;7.50;99.90;;;;;;5050168;28;20049;-86
2022/03/24 07:31:24;;;;;;;62.83;34.33;;;8.60;99.90;;;;;;5067858;28;20064;-86
2022/03/24 07:33:53;;;;;;;50.47;32.63;;;8.90;99.90;;;;;;5032611;28;20049;-85
2022/03/24 07:36:22;;;;;;;60.65;37.30;;;9.00;99.90;;;;;;5067809;28;20083;-85
2022/03/24 07:38:52;;;;;;;67.47;38.33;;;8.20;99.90;;;;;;5066266;28;20400;-85
2022/03/24 07:41:18;;;;;;;62.47;36.80;;;8.20;99.90;;;;;;5049886;28;20101;-85
2022/03/24 07:43:44;;;;;;;66.75;38.03;;;9.60;99.90;;;;;;5066338;28;20476;-85
2022/03/24 07:46:10;;;;;;;60.88;37.72;;;8.90;99.90;;;;;;5065552;28;20055;-85
2022/03/24 07:48:38;;;;;;;66.65;37.25;;;9.90;99.90;;;;;;5068136;28;20483;-83
2022/03/24 07:51:05;;;;;;;61.58;35.92;;;8.60;99.90;;;;;;5065750;28;20119;-84
2022/03/24 07:53:49;;;;;;;54.90;34.42;;;8.70;99.90;;;;;;5070892;28;20076;-84
2022/03/24 07:56:17;;;;;;;53.92;33.97;;;8.80;99.90;;;;;;5054772;28;20033;-84
2022/03/24 07:58:43;;;;;;;54.53;33.92;;;8.90;99.90;;;;;;5067439;28;20480;-85
2022/03/24 08:01:08;;;;;;;59.15;34.45;;;9.00;99.90;;;;;;5067850;28;20441;-85
2022/03/24 08:03:34;;;;;;;69.05;38.20;;;10.00;99.90;;;;;;5066486;28;20167;-85
2022/03/24 08:06:03;;;;;;;59.55;37.00;;;9.40;99.90;;;;;;5067903;28;20102;-85
2022/03/24 08:08:30;;;;;;;59.78;36.25;;;10.10;99.90;;;;;;5069354;28;20075;-84
2022/03/24 08:10:56;;;;;;;57.13;37.25;;;9.70;99.90;;;;;;5074246;28;20051;-84
2022/03/24 08:13:23;;;;;;;60.28;35.67;;;9.80;99.90;;;;;;5035207;28;20535;-84
2022/03/24 08:15:50;;;;;;;61.17;38.20;;;9.90;99.90;;;;;;5069088;28;20427;-84
2022/03/24 08:18:17;;;;;;;57.70;38.00;;;10.00;99.90;;;;;;5074821;28;20517;-84
2022/03/24 08:20:44;;;;;;;60.75;38.15;;;10.10;99.90;;;;;;5070276;28;20052;-83
2022/03/24 08:23:11;;;;;;;57.08;35.97;;;11.60;99.90;;;;;;5049594;28;20087;-84
2022/03/24 08:25:42;;;;;;;64.88;38.92;;;10.40;99.90;;;;;;5065113;28;20041;-84
2022/03/24 08:28:10;;;;;;;60.03;36.05;;;11.40;99.90;;;;;;5065906;28;20040;-85
2022/03/24 08:30:35;;;;;;;58.83;36.78;;;11.70;99.90;;;;;;5065468;28;20496;-85
2022/03/24 08:33:01;;;;;;;61.00;35.90;;;10.70;99.90;;;;;;5032312;28;20097;-84
2022/03/24 08:35:27;;;;;;;60.75;35.05;;;10.80;99.90;;;;;;5049857;28;20040;-83
2022/03/24 08:37:53;;;;;;;63.08;36.05;;;12.10;99.90;;;;;;5048280;28;20043;-84
2022/03/24 08:40:19;;;;;;;55.92;35.88;;;11.20;99.90;;;;;;5068150;28;20048;-84
2022/03/24 08:42:45;;;;;;;57.15;36.05;;;11.30;99.90;;;;;;5049496;28;20041;-84
2022/03/24 08:45:13;;;;;;;62.85;35.60;;;11.40;99.90;;;;;;5066541;28;20049;-84
2022/03/24 08:47:40;;;;;;;56.80;34.63;;;12.60;99.90;;;;;;5067982;28;20553;-84
2022/03/24 08:50:08;;;;;;;55.92;35.88;;;11.70;99.90;;;;;;5068883;28;20033;-83
2022/03/24 08:52:35;;;;;;;50.35;33.42;;;11.90;99.90;;;;;;5034944;28;20041;-84
2022/03/24 08:55:02;;;;;;;53.13;35.20;;;12.00;99.90;;;;;;5071940;28;20074;-82
2022/03/24 08:57:28;;;;;;;51.10;34.55;;;12.90;99.90;;;;;;5084149;28;20049;-82
2022/03/24 08:59:55;;;;;;;51.78;34.85;;;12.40;99.90;;;;;;5083943;28;20368;-82
2022/03/24 09:02:21;;;;;;;52.30;34.35;;;12.50;99.90;;;;;;5069786;28;20044;-79
2022/03/24 09:04:48;;;;;;;56.53;33.88;;;12.70;99.90;;;;;;5067479;28;20051;-80
2022/03/24 09:07:14;;;;;;;50.05;32.10;;;12.90;99.90;;;;;;5065324;28;20044;-80
2022/03/24 09:09:40;;;;;;;51.42;34.42;;;13.20;99.90;;;;;;5066187;28;20047;-79
2022/03/24 09:12:07;;;;;;;48.70;33.90;;;13.50;99.90;;;;;;5067096;28;20082;-79
2022/03/24 09:14:33;;;;;;;48.70;32.85;;;13.70;99.90;;;;;;5066006;28;20051;-79
2022/03/24 09:16:58;;;;;;;51.40;34.70;;;13.80;99.90;;;;;;5067268;28;20041;-79
2022/03/24 09:19:24;;;;;;;51.97;33.20;;;14.50;99.90;;;;;;5066952;28;20045;-79
2022/03/24 09:21:50;;;;;;;51.38;34.97;;;14.10;99.90;;;;;;5066933;28;20055;-80
2022/03/24 09:24:16;;;;;;;50.53;34.10;;;14.20;99.90;;;;;;5048616;28;20036;-80
2022/03/24 09:26:42;;;;;;;51.70;34.63;;;14.40;99.90;;;;;;5065557;28;20048;-80
2022/03/24 09:29:08;;;;;;;51.38;32.47;;;14.50;99.90;;;;;;5064996;28;20381;-79
2022/03/24 09:31:35;;;;;;;50.33;33.78;;;14.60;99.90;;;;;;5066507;28;20056;-79
2022/03/24 09:34:01;;;;;;;52.17;33.97;;;14.70;99.90;;;;;;5066623;28;20446;-80
2022/03/24 09:36:27;;;;;;;50.60;33.72;;;15.00;99.90;;;;;;5066774;28;20048;-81
2022/03/24 09:38:53;;;;;;;52.58;34.80;;;15.10;99.90;;;;;;5064589;28;20084;-79
2022/03/24 09:41:20;;;;;;;52.40;33.08;;;15.30;99.90;;;;;;5066774;28;20113;-79
2022/03/24 09:43:46;;;;;;;52.13;32.47;;;15.50;99.90;;;;;;5065932;28;20041;-79
2022/03/24 09:46:13;;;;;;;45.05;33.53;;;15.80;99.90;;;;;;5066281;28;20110;-79
2022/03/24 09:48:42;;;;;;;49.13;33.45;;;15.90;99.30;;;;;;5065549;28;20408;-79
2022/03/24 09:51:09;;;;;;;47.88;32.92;;;16.10;98.50;;;;;;5064645;28;20585;-79
2022/03/24 09:53:39;;;;;;;49.05;33.67;;;16.20;98.40;;;;;;5066325;28;20087;-79
2022/03/24 09:56:05;;;;;;;48.75;33.55;;;16.30;97.90;;;;;;5065010;28;20570;-80
2022/03/24 09:58:30;;;;;;;50.70;34.05;;;16.50;97.20;;;;;;5066647;28;20512;-79
2022/03/24 10:00:56;;;;;;;50.63;33.50;;;16.60;96.30;;;;;;5065278;28;20067;-79
2022/03/24 10:03:22;;;;;;;47.55;32.35;;;16.80;95.70;;;;;;5066905;28;20044;-80
2022/03/24 10:06:07;;;;;;;46.33;32.35;;;16.90;94.70;;;;;;5048435;28;20056;-79
2022/03/24 10:08:34;;;;;;;48.25;32.45;;;17.00;90.80;;;;;;5066262;28;20056;-80
2022/03/24 10:11:09;;;;;;;54.58;34.42;;;17.20;92.40;;;;;;5065831;28;20045;-81
2022/03/24 10:13:57;;;;;;;50.03;33.03;;;17.20;90.90;;;;;;5065483;28;20105;-80
2022/03/24 10:16:32;;;;;;;45.20;31.02;;;17.30;88.00;;;;;;5066669;28;20168;-78
2022/03/24 10:19:01;;;;;;;50.10;31.73;;;17.40;88.70;;;;;;5066743;28;20090;-81
2022/03/24 10:21:31;;;;;;;46.95;32.78;;;17.50;88.40;;;;;;5065271;28;20040;-80
2022/03/24 10:24:00;;;;;;;59.17;33.10;;;17.40;86.30;;;;;;5066363;28;20036;-80
2022/03/24 10:26:48;;;;;;;50.00;33.15;;;17.40;87.90;;;;;;5064396;28;20476;-79
2022/03/24 10:29:22;;;;;;;45.65;30.77;;;17.50;80.50;;;;;;5066619;28;20088;-80
2022/03/24 10:32:11;;;;;;;48.95;31.08;;;17.70;80.30;;;;;;5049705;28;20057;-79
2022/03/24 10:34:40;;;;;;;46.42;29.70;;;17.70;73.10;;;;;;5068498;28;20056;-80
2022/03/24 10:37:12;;;;;;;44.92;30.65;;;17.70;78.10;;;;;;5067724;28;20064;-77
2022/03/24 10:39:57;;;;;;;46.63;28.00;;;17.70;75.00;;;;;;5049522;28;20047;-80
2022/03/24 10:42:26;;;;;;;43.30;29.42;;;17.80;68.10;;;;;;5065958;28;20097;-79
2022/03/24 10:45:04;;;;;;;44.03;28.75;;;17.90;72.30;;;;;;5065021;28;20087;-79
2022/03/24 10:47:50;;;;;;;45.53;28.88;;;18.00;68.70;;;;;;5064423;28;20131;-80
2022/03/24 10:50:19;;;;;;;46.10;28.92;;;17.90;67.20;;;;;;5065045;28;20044;-79
2022/03/24 10:52:44;;;;;;;39.88;26.20;;;18.00;68.20;;;;;;5065812;28;20044;-79
2022/03/24 10:55:12;;;;;;;36.95;25.92;;;18.00;68.40;;;;;;5048298;28;20587;-79
2022/03/24 10:57:39;;;;;;;39.47;27.52;;;18.00;66.40;;;;;;5066115;28;20051;-80
2022/03/24 11:00:05;;;;;;;37.13;25.50;;;18.20;66.10;;;;;;5049395;28;20063;-80
2022/03/24 11:02:32;;;;;;;41.58;26.92;;;18.20;64.10;;;;;;5068528;28;20045;-79
2022/03/24 11:05:12;;;;;;;41.03;25.70;;;18.20;64.70;;;;;;5069297;28;20033;-80
2022/03/24 11:07:38;;;;;;;35.80;24.17;;;18.30;62.90;;;;;;5068664;28;20500;-79
2022/03/24 11:10:14;;;;;;;42.15;27.25;;;18.40;62.00;;;;;;5069393;28;20395;-79
2022/03/24 11:12:42;;;;;;;39.10;26.50;;;18.50;60.80;;;;;;5068154;28;20132;-79
2022/03/24 11:15:09;;;;;;;37.15;24.63;;;18.50;61.70;;;;;;5069225;28;20041;-79
2022/03/24 11:17:39;;;;;;;41.00;27.17;;;18.50;61.60;;;;;;5067568;28;20131;-79
2022/03/24 11:20:08;;;;;;;41.70;26.35;;;18.60;60.40;;;;;;5068073;28;20074;-79
2022/03/24 11:22:43;;;;;;;40.55;26.70;;;18.50;60.50;;;;;;5069243;28;20122;-79
2022/03/24 11:25:10;;;;;;;41.15;25.40;;;18.60;60.20;;;;;;5069648;28;20063;-79
2022/03/24 11:27:36;;;;;;;37.35;24.85;;;18.70;60.00;;;;;;5069446;28;20052;-79
2022/03/24 11:30:06;;;;;;;41.88;26.38;;;18.80;59.60;;;;;;5068673;28;20044;-79
2022/03/24 11:32:36;;;;;;;35.40;26.10;;;18.90;58.90;;;;;;5069605;28;20053;-78
2022/03/24 11:35:05;;;;;;;39.00;25.60;;;18.90;58.50;;;;;;5069561;28;20075;-79
2022/03/24 11:37:31;;;;;;;42.42;26.58;;;19.00;59.00;;;;;;5070035;28;20383;-79
2022/03/24 11:40:25;;;;;;;36.85;27.00;;;19.00;58.40;;;;;;5068878;28;20067;-80
2022/03/24 11:42:53;;;;;;;38.70;27.30;;;19.10;56.40;;;;;;5069211;28;20476;-80
2022/03/24 11:45:21;;;;;;;43.97;28.90;;;19.00;57.60;;;;;;5067879;28;20047;-79
2022/03/24 11:48:11;;;;;;;41.97;26.35;;;18.90;57.20;;;;;;5068756;28;20079;-79
2022/03/24 11:50:41;;;;;;;38.25;26.38;;;18.90;56.50;;;;;;5068288;28;20056;-79
2022/03/24 11:53:25;;;;;;;41.60;26.00;;;18.90;57.00;;;;;;5068785;28;20401;-80
2022/03/24 11:56:01;;;;;;;39.55;26.63;;;19.00;55.60;;;;;;5069930;28;20562;-80
2022/03/24 11:58:30;;;;;;;36.55;24.27;;;19.00;55.70;;;;;;5069968;28;20071;-79
2022/03/24 12:01:16;;;;;;;32.75;24.67;;;19.20;55.70;;;;;;5068653;28;20044;-79
2022/03/24 12:03:48;;;;;;;38.75;25.42;;;19.20;54.90;;;;;;5069926;28;20048;-79
2022/03/24 12:06:16;;;;;;;34.07;23.87;;;19.10;54.60;;;;;;5069168;28;20511;-80
2022/03/24 12:09:03;;;;;;;36.45;25.00;;;19.10;55.30;;;;;;5070462;28;20048;-79
2022/03/24 12:11:31;;;;;;;34.15;23.13;;;19.20;53.70;;;;;;5069600;28;20047;-79
2022/03/24 12:13:59;;;;;;;33.15;22.92;;;19.30;54.50;;;;;;5069294;28;20052;-77
2022/03/24 12:16:27;;;;;;;39.22;25.13;;;19.30;54.10;;;;;;5070359;28;20055;-79
2022/03/24 12:18:53;;;;;;;31.52;23.23;;;19.40;53.80;;;;;;5068076;28;20045;-80
2022/03/24 12:21:23;;;;;;;36.42;23.45;;;19.40;53.80;;;;;;5051387;28;20063;-79
2022/03/24 12:24:15;;;;;;;35.30;24.75;;;19.50;53.20;;;;;;5068598;28;20518;-78
2022/03/24 12:26:51;;;;;;;37.65;26.42;;;19.50;51.30;;;;;;5067861;28;20044;-79
2022/03/24 12:29:23;;;;;;;34.42;24.13;;;19.40;52.10;;;;;;5068583;28;20144;-80
2022/03/24 12:32:06;;;;;;;37.95;24.60;;;19.40;52.40;;;;;;5066105;28;20058;-80
2022/03/24 12:34:43;;;;;;;38.33;24.38;;;19.40;50.80;;;;;;5067297;28;20053;-79
2022/03/24 12:37:27;;;;;;;38.42;23.52;;;19.30;51.20;;;;;;5066662;28;20132;-79
2022/03/24 12:40:05;;;;;;;33.60;22.75;;;19.30;49.90;;;;;;5065688;28;20091;-79
2022/03/24 12:42:40;;;;;;;35.75;22.00;;;19.40;49.50;;;;;;5066038;28;20053;-78